Terminal Aerodrome Forecast
Issued by NWS

Home | Current Version | Previous Version | Text Only | Print | Product List | Glossary Off
Versions: 1 2 3 4 5 6 7 8 9 10 11 12 13 14 15 16 17 18 19 20 21

074
FTUS43 KBIS 210913 AAD
TAFJMS
TAF AMD
KJMS 210913Z 2109/2206 31026G37KT P6SM FEW025
      TEMPO 2110/2114 BKN025
     FM211700 32019G25KT P6SM FEW030 FEW300
     FM211900 31015G20KT P6SM FEW300
     FM220100 29009KT P6SM FEW200=

USA.gov is the U.S. government's official web portal to all federal, state and local government web resources and services.